Airfield :
LOGIN :

Register | Disclaimer

   EN    FR    IT 

 










Legend :    VFR   Marginal VFR   IFR   Intensive IFR   Very Intensive IFR
Visi :
Ceiling :
>= 8 km
>= 3000ft
5 to 8 km
1000 to 3000 ft
1500m to 5 km
500 to 1000 ft
800 to 1500m
200 to 500 ft
< 800m
< 200 ft
Symbols :   Thunderstorms  Fog  Heavy snow  Heavy precipitations  Wind > 20 kt
SIGMETs :     Misc.  Thunderstorms  Icing  Turbulence  Mountain Waves  Volcanic Ashes






- Airport Elevation : 126 ft
- IATA code : WIC


EGPC - Wick

CURRENT METAR :
  • 191820Z 18018G29KT 8000 -RA SCT018 05/04 Q0993

EXPIRED METARs :
  • 191750Z 17019G29KT 8000 -RA SCT018 05/04 Q0994
  • 191720Z 17018G28KT 7000 -RA BKN018 05/03 Q0995
  • 191650Z 17017KT 8000 -RA SCT018 BKN044 05/02 Q0996
  • 191620Z 17018KT 8000 -RA SCT025 BKN044 06/02 Q0996
  • 191550Z 17015KT 9999 FEW020 06/01 Q0997

TAF TAF EGPC
Valid from the 19 at 18:00 until the 20 at 03:00 UTC


191657Z 1918/2003 17016KT 9999 FEW012 SCT025
TEMPO 1918/1921 18020G30KT 6000 RA BKN010
PROB40
TEMPO 1918/1920 18028G40KT 3000 RADZ BKN005
BECMG 1921/1924 23009KT
PROB40
TEMPO 2000/2003 5000 SHRA SHGS BKN010CB
ATIS : +44 1955 607 596



MET'MAP, your aeronautical weather chart ! - Copyright ORBIFLY December 2007 - Disclaimer

ORBIFLY MET'MAP TEAM :

Programming & Development : Alexandra Zaïnal
Concept & original design : Baudouin d'Aumeries
Assistance for programming : Marc-Olivier Méhu
Technical & hardware support : Manuel Goepfert

Contact : metmap@orbifly.com




SOURCES & CREDITS :

   NOAA